This is the latest recevied weather packets stored in our database for station/object KQ7A. If no packets are shown the sender has not sent any weather packets the latest 10 day(s).
| Time | Temp. | Humidity | Pressure | Rain* | Wind** | Luminosity | Snow |
|---|---|---|---|---|---|---|---|
| 1777604971 | 14.44° C | 32% | 1016.9 hPa | 0 mm | - | 0 W/m² | - |
| 1777604666 | 14.44° C | 32% | 1016.8 hPa | 0 mm | - | 0 W/m² | - |
| 1777604363 | 14.44° C | 33% | 1016.9 hPa | 0 mm | - | 0 W/m² | - |
| 1777604062 | 14.44° C | 31% | 1016.7 hPa | 0 mm | - | 0 W/m² | - |
| 1777603760 | 15° C | 31% | 1016.8 hPa | 0 mm | - | 3 W/m² | - |
| 1777603456 | 15° C | 31% | 1016.6 hPa | 0 mm | - | 5 W/m² | - |
| 1777603152 | 14.44° C | 31% | 1016.7 hPa | 0 mm | - | 8 W/m² | - |
| 1777602848 | 14.44° C | 33% | 1016.6 hPa | 0 mm | - | 10 W/m² | - |
| 1777602543 | 14.44° C | 34% | 1016.4 hPa | 0 mm | - | 13 W/m² | - |
| 1777602239 | 15° C | 33% | 1016.7 hPa | 0 mm | - | 16 W/m² | - |
| 1777601935 | 15° C | 32% | 1016.3 hPa | 0 mm | - | 18 W/m² | - |
| 1777601629 | 15° C | 30% | 1016.6 hPa | 0 mm | - | 21 W/m² | - |
| 1777601325 | 15° C | 32% | 1016.4 hPa | 0 mm | - | 23 W/m² | - |
| 1777601022 | 15° C | 32% | 1016.6 hPa | 0 mm | - | 25 W/m² | - |
| 1777600719 | 15.56° C | 30% | 1016.4 hPa | 0 mm | - | 27 W/m² | - |
| 1777600415 | 15.56° C | 31% | 1016.6 hPa | 0 mm | - | 29 W/m² | - |
| 1777600111 | 15.56° C | 30% | 1016.4 hPa | 0 mm | - | 31 W/m² | - |
| 1777599806 | 15.56° C | 31% | 1016.3 hPa | 0 mm | - | 32 W/m² | - |
| 1777599502 | 16.11° C | 30% | 1016.4 hPa | 0 mm | - | 35 W/m² | - |
| 1777599199 | 16.11° C | 31% | 1016.6 hPa | 0 mm | - | 35 W/m² | - |
| 1777598895 | 16.67° C | 30% | 1016.3 hPa | 0 mm | - | 37 W/m² | - |
| 1777598593 | 16.67° C | 30% | 1016.4 hPa | 0 mm | - | 39 W/m² | - |
| 1777598289 | 16.67° C | 29% | 1016.6 hPa | 0 mm | - | 41 W/m² | - |
| 1777597987 | 17.78° C | 33% | 1016.6 hPa | 0 mm | - | 42 W/m² | - |
| 1777597685 | 20° C | 26% | 1016.1 hPa | 0 mm | - | 45 W/m² | - |
* Rain latest hour (hover to see other rain measurements)
** Current wind speed in m/s (hover to see current wind gust speed)